Time;durP1;ratioP1;P1;durP2;ratioP2;P2;SDS_P1;SDS_P2;PMS_P1;PMS_P2;Temp;Humidity;BMP_temperature;BMP_pressure;BME280_temperature;BME280_humidity;BME280_pressure;Samples;Min_cycle;Max_cycle;Signal;HPM_P1;HPM_P2
2022/10/25 00:01:14;;;;;;;;;;;25.80;99.90;;;;;;5049286;22;19925;-56
2022/10/25 00:03:39;;;;;;;;;;;25.70;99.90;;;;;;5051046;28;20365;-55
2022/10/25 00:06:07;;;;;;;;;;;25.70;99.90;;;;;;5038647;28;19916;-55
2022/10/25 00:08:32;;;;;;;;;;;25.80;99.90;;;;;;5013360;28;20365;-56
2022/10/25 00:10:58;;;;;;;;;;;25.80;99.90;;;;;;5014527;28;19914;-57
2022/10/25 00:13:23;;;;;;;;;;;25.70;99.90;;;;;;5014522;28;19979;-55
2022/10/25 00:15:49;;;;;;;;;;;25.70;99.90;;;;;;5012860;28;20000;-56
2022/10/25 00:18:15;;;;;;;;;;;25.70;99.90;;;;;;5012493;28;19909;-56
2022/10/25 00:20:40;;;;;;;;;;;25.70;99.90;;;;;;5012664;28;19917;-57
2022/10/25 00:23:06;;;;;;;;;;;25.70;99.90;;;;;;5028542;28;20375;-56
2022/10/25 00:25:31;;;;;;;;;;;25.70;99.90;;;;;;5035751;28;19921;-56
2022/10/25 00:27:57;;;;;;;;;;;25.70;99.90;;;;;;5045549;28;19999;-56
2022/10/25 00:30:23;;;;;;;;;;;25.70;99.90;;;;;;5029570;28;19928;-57
2022/10/25 00:32:51;;;;;;;;;;;25.70;99.90;;;;;;5035549;28;19920;-56
2022/10/25 00:35:17;;;;;;;;;;;25.70;99.90;;;;;;5033245;28;20226;-56
2022/10/25 00:37:43;;;;;;;;;;;25.70;99.90;;;;;;5017528;28;19968;-55
2022/10/25 00:40:09;;;;;;;;;;;25.70;99.90;;;;;;5018920;28;20290;-56
2022/10/25 00:42:34;;;;;;;;;;;25.70;99.90;;;;;;5018103;28;19960;-55
2022/10/25 00:45:00;;;;;;;;;;;25.70;99.90;;;;;;5023499;28;19910;-55
2022/10/25 00:47:26;;;;;;;;;;;25.70;99.90;;;;;;5014401;28;19948;-55
2022/10/25 00:49:55;;;;;;;;;;;25.70;99.90;;;;;;5012756;28;19916;-54
2022/10/25 00:52:21;;;;;;;;;;;25.70;99.90;;;;;;5011523;28;19972;-55
2022/10/25 00:54:51;;;;;;;;;;;25.70;99.90;;;;;;5013284;28;19948;-55
2022/10/25 00:57:31;;;;;;;;;;;25.70;99.90;;;;;;5012670;28;19913;-56
2022/10/25 00:59:57;;;;;;;;;;;25.70;99.90;;;;;;5032210;22;19925;-54
2022/10/25 01:02:23;;;;;;;;;;;25.80;99.90;;;;;;5039701;28;19924;-54
2022/10/25 01:04:49;;;;;;;;;;;25.70;99.90;;;;;;5041685;28;20305;-55
2022/10/25 01:07:15;;;;;;;;;;;25.70;99.90;;;;;;5040664;28;20040;-55
2022/10/25 01:09:41;;;;;;;;;;;25.80;99.90;;;;;;5040535;28;19999;-54
2022/10/25 01:12:07;;;;;;;;;;;25.80;99.90;;;;;;5036558;28;19916;-54
2022/10/25 01:14:35;;;;;;;;;;;25.80;99.90;;;;;;5032615;28;20293;-54
2022/10/25 01:17:19;;;;;;;;;;;25.80;99.90;;;;;;5033734;28;19917;-55
2022/10/25 01:19:56;;;;;;;;;;;25.80;99.90;;;;;;5059050;28;19971;-55
2022/10/25 01:22:41;;;;;;;;;;;25.80;99.90;;;;;;5049209;28;20285;-56
2022/10/25 01:25:25;;;;;;;;;;;25.80;99.90;;;;;;5049695;28;19947;-56
2022/10/25 01:27:54;;;;;;;;;;;25.80;99.90;;;;;;5050506;28;19917;-56
2022/10/25 01:30:19;;;;;;;;;;;25.80;99.90;;;;;;5050850;28;19966;-55
2022/10/25 01:32:51;;;;;;;;;;;25.90;99.90;;;;;;5050464;28;19909;-55
2022/10/25 01:35:25;;;;;;;;;;;25.80;99.90;;;;;;5049142;28;19995;-54
2022/10/25 01:38:09;;;;;;;;;;;25.80;99.90;;;;;;5051727;28;19909;-55
2022/10/25 01:40:53;;;;;;;;;;;25.90;99.90;;;;;;5052155;28;19916;-55
2022/10/25 01:43:18;;;;;;;;;;;25.80;99.90;;;;;;5050973;28;19996;-54
2022/10/25 01:45:44;;;;;;;;;;;25.80;99.90;;;;;;5052269;28;19955;-54
2022/10/25 01:48:14;;;;;;;;;;;25.90;99.90;;;;;;5052182;28;19909;-58
2022/10/25 01:50:41;;;;;;;;;;;25.90;99.90;;;;;;5049148;28;19966;-54
2022/10/25 01:53:07;;;;;;;;;;;25.90;99.90;;;;;;5050768;28;19963;-55
2022/10/25 01:55:35;;;;;;;;;;;25.90;99.90;;;;;;5058436;28;20346;-55
2022/10/25 01:58:01;;;;;;;;;;;25.90;99.90;;;;;;5049195;28;19909;-55
2022/10/25 02:00:29;;;;;;;;;;;25.90;99.90;;;;;;5072926;23;19925;-56
2022/10/25 02:03:10;;;;;;;;;;;25.90;99.90;;;;;;5070192;28;19920;-56
2022/10/25 02:05:54;;;;;;;;;;;25.90;99.90;;;;;;5071266;28;20275;-55
2022/10/25 02:08:32;;;;;;;;;;;25.90;99.90;;;;;;5067379;28;19920;-60
2022/10/25 02:11:20;;;;;;;;;;;25.90;99.90;;;;;;5071780;28;20004;-56
2022/10/25 02:13:58;;;;;;;;;;;25.90;99.90;;;;;;5068388;28;19913;-56
2022/10/25 02:16:25;;;;;;;;;;;25.90;99.90;;;;;;5071652;28;19931;-55
2022/10/25 02:18:53;;;;;;;;;;;25.90;99.90;;;;;;5071632;28;20011;-55
2022/10/25 02:21:19;;;;;;;;;;;25.80;99.90;;;;;;5071178;28;19924;-55
2022/10/25 02:23:46;;;;;;;;;;;25.80;99.90;;;;;;5069802;28;19908;-55
2022/10/25 02:26:13;;;;;;;;;;;25.80;99.90;;;;;;5069858;28;19987;-56
2022/10/25 02:28:40;;;;;;;;;;;25.80;99.90;;;;;;5069917;28;19944;-56
2022/10/25 02:31:11;;;;;;;;;;;25.80;99.90;;;;;;5069560;28;19916;-56
2022/10/25 02:33:37;;;;;;;;;;;25.80;99.90;;;;;;5069763;28;19962;-56
2022/10/25 02:36:05;;;;;;;;;;;25.80;99.90;;;;;;5069751;28;20356;-56
2022/10/25 02:38:31;;;;;;;;;;;25.80;99.90;;;;;;5069535;28;19916;-56
2022/10/25 02:40:57;;;;;;;;;;;25.80;99.90;;;;;;5071790;28;19917;-56
2022/10/25 02:43:23;;;;;;;;;;;25.80;99.90;;;;;;5071836;28;19908;-56
2022/10/25 02:45:48;;;;;;;;;;;25.80;99.90;;;;;;5071656;28;19999;-56
2022/10/25 02:48:14;;;;;;;;;;;25.80;99.90;;;;;;5071862;28;19911;-56
2022/10/25 02:50:39;;;;;;;;;;;25.70;99.90;;;;;;5071718;28;19912;-55
2022/10/25 02:53:05;;;;;;;;;;;25.80;99.90;;;;;;5087220;28;20011;-55
2022/10/25 02:55:31;;;;;;;;;;;25.70;99.90;;;;;;5071799;28;20006;-55
2022/10/25 02:57:57;;;;;;;;;;;25.70;99.90;;;;;;5071656;28;20360;-55
2022/10/25 03:00:23;;;;;;;;;;;25.70;99.90;;;;;;5074792;22;19928;-54
2022/10/25 03:02:48;;;;;;;;;;;25.70;99.90;;;;;;5051641;28;19913;-55
2022/10/25 03:05:14;;;;;;;;;;;25.70;99.90;;;;;;5054902;28;19916;-55
2022/10/25 03:07:39;;;;;;;;;;;25.70;99.90;;;;;;5055149;28;19909;-54
2022/10/25 03:10:05;;;;;;;;;;;25.70;99.90;;;;;;5053876;28;19909;-55
2022/10/25 03:12:31;;;;;;;;;;;25.70;99.90;;;;;;5055255;28;19909;-55
2022/10/25 03:14:56;;;;;;;;;;;25.70;99.90;;;;;;5055022;28;20007;-55
2022/10/25 03:17:22;;;;;;;;;;;25.70;99.90;;;;;;5055132;28;19909;-54
2022/10/25 03:19:47;;;;;;;;;;;25.70;99.90;;;;;;5055079;28;19924;-54
2022/10/25 03:22:13;;;;;;;;;;;25.60;99.90;;;;;;5054951;28;19909;-54
2022/10/25 03:24:39;;;;;;;;;;;25.60;99.90;;;;;;5054930;28;20319;-55
2022/10/25 03:27:04;;;;;;;;;;;25.60;99.90;;;;;;5054915;28;19908;-55
2022/10/25 03:29:30;;;;;;;;;;;25.60;99.90;;;;;;5055100;28;19963;-55
2022/10/25 03:31:55;;;;;;;;;;;25.60;99.90;;;;;;5054817;28;19984;-55
2022/10/25 03:34:21;;;;;;;;;;;25.60;99.90;;;;;;5054797;28;19909;-54
2022/10/25 03:36:46;;;;;;;;;;;25.60;99.90;;;;;;5054735;28;19909;-54
2022/10/25 03:39:12;;;;;;;;;;;25.60;99.90;;;;;;5054641;28;20004;-55
2022/10/25 03:41:38;;;;;;;;;;;25.60;99.90;;;;;;5054601;28;19917;-54
2022/10/25 03:44:03;;;;;;;;;;;25.60;99.90;;;;;;5054864;28;19915;-54
2022/10/25 03:46:29;;;;;;;;;;;25.60;99.90;;;;;;5054564;28;19909;-54
2022/10/25 03:48:54;;;;;;;;;;;25.60;99.90;;;;;;5036567;28;19916;-54
2022/10/25 03:51:20;;;;;;;;;;;25.60;99.90;;;;;;5054317;28;20357;-54
2022/10/25 03:53:46;;;;;;;;;;;25.60;99.90;;;;;;5054316;28;20365;-54
2022/10/25 03:56:11;;;;;;;;;;;25.60;99.90;;;;;;5054377;28;19913;-53
2022/10/25 03:58:37;;;;;;;;;;;25.50;99.90;;;;;;5054305;28;20353;-54
2022/10/25 04:01:02;;;;;;;;;;;25.50;99.90;;;;;;5053342;22;19929;-50
2022/10/25 04:03:28;;;;;;;;;;;25.50;99.90;;;;;;5034168;28;19910;-49
2022/10/25 04:05:53;;;;;;;;;;;25.50;99.90;;;;;;5034139;28;19916;-50
2022/10/25 04:08:19;;;;;;;;;;;25.50;99.90;;;;;;5034045;28;20379;-49
2022/10/25 04:10:45;;;;;;;;;;;25.50;99.90;;;;;;5034169;28;19909;-49
2022/10/25 04:13:11;;;;;;;;;;;25.50;99.90;;;;;;5034082;28;19917;-49
2022/10/25 04:15:37;;;;;;;;;;;25.50;99.90;;;;;;5033978;28;20406;-49
2022/10/25 04:18:03;;;;;;;;;;;25.50;99.90;;;;;;5033012;28;20368;-50
2022/10/25 04:20:29;;;;;;;;;;;25.40;99.90;;;;;;5033752;28;20304;-49
2022/10/25 04:22:55;;;;;;;;;;;25.50;99.90;;;;;;5033687;28;20292;-49
2022/10/25 04:25:21;;;;;;;;;;;25.50;99.90;;;;;;5033785;28;20369;-49
2022/10/25 04:27:47;;;;;;;;;;;25.40;99.90;;;;;;5033647;28;19909;-49
2022/10/25 04:30:13;;;;;;;;;;;25.50;99.90;;;;;;5033472;28;19932;-49
2022/10/25 04:32:38;;;;;;;;;;;25.50;99.90;;;;;;5033824;28;19909;-49
2022/10/25 04:35:04;;;;;;;;;;;25.50;99.90;;;;;;5033834;28;19909;-49
2022/10/25 04:37:30;;;;;;;;;;;25.40;99.90;;;;;;5033354;28;19909;-49
2022/10/25 04:39:55;;;;;;;;;;;25.40;99.90;;;;;;5033528;28;19988;-49
2022/10/25 04:42:21;;;;;;;;;;;25.40;99.90;;;;;;5033305;28;19909;-49
2022/10/25 04:44:46;;;;;;;;;;;25.40;99.90;;;;;;5033471;28;19909;-49
2022/10/25 04:47:12;;;;;;;;;;;25.40;99.90;;;;;;5033256;28;19910;-50
2022/10/25 04:49:37;;;;;;;;;;;25.40;99.90;;;;;;5033270;28;20396;-50
2022/10/25 04:52:03;;;;;;;;;;;25.40;99.90;;;;;;5033182;28;19909;-50
2022/10/25 04:54:29;;;;;;;;;;;25.40;99.90;;;;;;5033214;28;19913;-50
2022/10/25 04:56:54;;;;;;;;;;;25.30;99.90;;;;;;5033263;28;20383;-50
2022/10/25 04:59:20;;;;;;;;;;;25.30;99.90;;;;;;5033378;28;19920;-50
2022/10/25 05:01:45;;;;;;;;;;;25.30;99.90;;;;;;5032750;28;19921;-49
2022/10/25 05:04:11;;;;;;;;;;;25.30;99.90;;;;;;5033019;28;20361;-49
2022/10/25 05:06:36;;;;;;;;;;;25.30;99.90;;;;;;5033318;28;19957;-49
2022/10/25 05:09:03;;;;;;;;;;;25.30;99.90;;;;;;5031428;28;20332;-49
2022/10/25 05:11:28;;;;;;;;;;;25.30;99.90;;;;;;5033021;28;19916;-49
2022/10/25 05:13:54;;;;;;;;;;;25.30;99.90;;;;;;5032733;28;20277;-49
2022/10/25 05:16:22;;;;;;;;;;;25.30;99.90;;;;;;5032565;28;19913;-49
2022/10/25 05:18:49;;;;;;;;;;;25.20;99.90;;;;;;5032994;28;19931;-49
2022/10/25 05:21:15;;;;;;;;;;;25.20;99.90;;;;;;5032810;28;19945;-50
2022/10/25 05:23:41;;;;;;;;;;;25.20;99.90;;;;;;5032918;28;20454;-49
2022/10/25 05:26:07;;;;;;;;;;;25.20;99.90;;;;;;5032454;28;19909;-49
2022/10/25 05:28:33;;;;;;;;;;;25.20;99.90;;;;;;5032549;28;19958;-49
2022/10/25 05:31:19;;;;;;;;;;;25.20;99.90;;;;;;5032644;28;19909;-49
2022/10/25 05:33:47;;;;;;;;;;;25.20;99.90;;;;;;5032330;28;19995;-49
2022/10/25 05:36:13;;;;;;;;;;;25.20;99.90;;;;;;5014738;28;19935;-49
2022/10/25 05:38:39;;;;;;;;;;;25.20;99.90;;;;;;5032604;28;19913;-49
2022/10/25 05:41:05;;;;;;;;;;;25.20;99.90;;;;;;5032466;28;19924;-50
2022/10/25 05:43:30;;;;;;;;;;;25.20;99.90;;;;;;5014682;28;19909;-49
2022/10/25 05:46:06;;;;;;;;;;;25.20;99.90;;;;;;5032212;28;19909;-49
2022/10/25 05:48:33;;;;;;;;;;;25.20;99.90;;;;;;5032249;28;20383;-49
2022/10/25 05:51:07;;;;;;;;;;;25.20;99.90;;;;;;5032262;28;19910;-49
2022/10/25 05:53:33;;;;;;;;;;;25.20;99.90;;;;;;5032009;28;19913;-49
2022/10/25 05:55:58;;;;;;;;;;;25.20;99.90;;;;;;5031320;28;19987;-49
2022/10/25 05:58:24;;;;;;;;;;;25.20;99.90;;;;;;5032282;28;20341;-49
2022/10/25 06:00:50;;;;;;;;;;;25.10;99.90;;;;;;5032040;28;19925;-49
2022/10/25 06:03:15;;;;;;;;;;;25.10;99.90;;;;;;5032315;28;19916;-49
2022/10/25 06:05:41;;;;;;;;;;;25.10;99.90;;;;;;5032339;28;19909;-49
2022/10/25 06:08:06;;;;;;;;;;;25.10;99.90;;;;;;5032047;28;20253;-49
2022/10/25 06:10:32;;;;;;;;;;;25.10;99.90;;;;;;5032240;28;19909;-49
2022/10/25 06:12:57;;;;;;;;;;;25.10;99.90;;;;;;5032027;28;20468;-49
2022/10/25 06:15:23;;;;;;;;;;;25.10;99.90;;;;;;5032034;28;19956;-50
2022/10/25 06:17:48;;;;;;;;;;;25.10;99.90;;;;;;5031896;28;19941;-49
2022/10/25 06:20:14;;;;;;;;;;;25.10;99.90;;;;;;5032082;28;19913;-49
2022/10/25 06:22:40;;;;;;;;;;;25.10;99.90;;;;;;5014277;28;19951;-49
2022/10/25 06:25:05;;;;;;;;;;;25.10;99.90;;;;;;5031795;28;19920;-49
2022/10/25 06:27:31;;;;;;;;;;;25.00;99.90;;;;;;5031583;28;19909;-50
2022/10/25 06:29:56;;;;;;;;;;;25.00;99.90;;;;;;5031685;28;19909;-49
2022/10/25 06:32:22;;;;;;;;;;;25.00;99.90;;;;;;5031838;28;20015;-49
2022/10/25 06:34:48;;;;;;;;;;;25.10;99.90;;;;;;5031982;28;19971;-49
2022/10/25 06:37:14;;;;;;;;;;;25.10;99.90;;;;;;5032369;28;20392;-54
2022/10/25 06:39:39;;;;;;;;;;;25.00;99.90;;;;;;5034214;28;19909;-49
2022/10/25 06:42:05;;;;;;;;;;;25.10;99.90;;;;;;5035474;28;19916;-49
2022/10/25 06:44:30;;;;;;;;;;;25.00;99.90;;;;;;5035499;28;20044;-49
2022/10/25 06:46:59;;;;;;;;;;;25.00;99.90;;;;;;5035416;28;20265;-50
2022/10/25 06:49:25;;;;;;;;;;;25.00;99.90;;;;;;5035357;28;19909;-49
2022/10/25 06:51:50;;;;;;;;;;;25.00;99.90;;;;;;5035263;28;19909;-49
2022/10/25 06:54:16;;;;;;;;;;;25.00;99.90;;;;;;5035458;28;19932;-49
2022/10/25 06:56:42;;;;;;;;;;;25.00;99.90;;;;;;5035206;28;20436;-49
2022/10/25 06:59:07;;;;;;;;;;;25.00;99.90;;;;;;5035104;28;20337;-49
2022/10/25 07:01:33;;;;;;;;;;;25.00;99.90;;;;;;5017079;28;19964;-49
2022/10/25 07:03:58;;;;;;;;;;;25.00;99.90;;;;;;5033643;28;20383;-49
2022/10/25 07:06:28;;;;;;;;;;;25.00;99.90;;;;;;5034765;28;19909;-49
2022/10/25 07:08:55;;;;;;;;;;;25.00;99.90;;;;;;5034934;28;20047;-50
2022/10/25 07:11:21;;;;;;;;;;;25.00;99.90;;;;;;5033360;28;19913;-49
2022/10/25 07:13:47;;;;;;;;;;;25.00;99.90;;;;;;5034910;28;19952;-49
2022/10/25 07:16:13;;;;;;;;;;;25.00;99.90;;;;;;5034856;28;19960;-48
2022/10/25 07:18:39;;;;;;;;;;;25.00;99.90;;;;;;5034960;28;20238;-48
2022/10/25 07:21:06;;;;;;;;;;;25.00;99.90;;;;;;5034654;28;20280;-49
2022/10/25 07:23:32;;;;;;;;;;;25.00;99.90;;;;;;5034785;28;19936;-49
2022/10/25 07:25:58;;;;;;;;;;;25.00;99.90;;;;;;5034837;28;19909;-49
2022/10/25 07:28:24;;;;;;;;;;;25.00;99.90;;;;;;5034629;28;20000;-49
2022/10/25 07:30:50;;;;;;;;;;;25.00;99.90;;;;;;5034785;28;19913;-49
2022/10/25 07:33:16;;;;;;;;;;;25.00;99.90;;;;;;5035005;28;20321;-49
2022/10/25 07:35:46;;;;;;;;;;;25.00;99.90;;;;;;5034710;28;19909;-49
2022/10/25 07:38:12;;;;;;;;;;;25.00;99.90;;;;;;5034398;28;19909;-49
2022/10/25 07:40:38;;;;;;;;;;;25.10;99.90;;;;;;5034439;28;19924;-49
2022/10/25 07:43:03;;;;;;;;;;;25.10;99.90;;;;;;5034306;28;20026;-49
2022/10/25 07:45:29;;;;;;;;;;;25.10;99.90;;;;;;5034392;28;19917;-49
2022/10/25 07:47:54;;;;;;;;;;;25.10;99.90;;;;;;5034081;28;20365;-49
2022/10/25 07:50:20;;;;;;;;;;;25.10;99.90;;;;;;5033997;28;20359;-49
2022/10/25 07:52:45;;;;;;;;;;;25.20;99.90;;;;;;5034336;28;19916;-49
2022/10/25 07:55:11;;;;;;;;;;;25.20;99.90;;;;;;5034190;28;20444;-49
2022/10/25 07:57:37;;;;;;;;;;;25.20;99.90;;;;;;5016391;28;19910;-49
2022/10/25 08:00:03;;;;;;;;;;;25.20;99.90;;;;;;5033892;28;20258;-49
2022/10/25 08:02:29;;;;;;;;;;;25.30;99.90;;;;;;5034160;28;19956;-49
2022/10/25 08:04:54;;;;;;;;;;;25.20;99.90;;;;;;5034001;28;19913;-49
2022/10/25 08:07:20;;;;;;;;;;;25.30;99.90;;;;;;5034111;28;20379;-50
2022/10/25 08:09:46;;;;;;;;;;;25.30;99.90;;;;;;5016048;28;19909;-49
2022/10/25 08:12:11;;;;;;;;;;;25.30;99.90;;;;;;5033901;28;19912;-49
2022/10/25 08:14:37;;;;;;;;;;;25.30;99.90;;;;;;5033890;28;19913;-49
2022/10/25 08:17:03;;;;;;;;;;;25.30;99.90;;;;;;5033712;28;19920;-49
2022/10/25 08:19:28;;;;;;;;;;;25.40;99.90;;;;;;5033965;28;20265;-49
2022/10/25 08:21:54;;;;;;;;;;;25.40;99.90;;;;;;5033548;28;20014;-49
2022/10/25 08:24:19;;;;;;;;;;;25.40;99.90;;;;;;5034051;28;20302;-56
2022/10/25 08:26:45;;;;;;;;;;;25.50;99.90;;;;;;5033487;28;20349;-49
2022/10/25 08:29:11;;;;;;;;;;;25.50;99.90;;;;;;5015657;28;20003;-49
2022/10/25 08:31:36;;;;;;;;;;;25.60;99.90;;;;;;5033287;28;19932;-50
2022/10/25 08:34:02;;;;;;;;;;;25.60;99.90;;;;;;5033508;28;19909;-49
2022/10/25 08:36:28;;;;;;;;;;;25.70;99.90;;;;;;5033612;28;19944;-49
2022/10/25 08:38:53;;;;;;;;;;;25.80;99.90;;;;;;5033605;28;19916;-49
2022/10/25 08:41:26;;;;;;;;;;;25.80;99.90;;;;;;5033195;28;19979;-50
2022/10/25 08:44:14;;;;;;;;;;;25.80;99.90;;;;;;5033360;28;19955;-49
2022/10/25 08:46:43;;;;;;;;;;;25.80;99.90;;;;;;5033429;28;19909;-49
2022/10/25 08:49:09;;;;;;;;;;;25.90;99.90;;;;;;5032131;28;19979;-49
2022/10/25 08:51:36;;;;;;;;;;;26.00;99.90;;;;;;5033261;28;20369;-49
2022/10/25 08:54:04;;;;;;;;;;;26.00;99.90;;;;;;5033295;28;19910;-49
2022/10/25 08:56:31;;;;;;;;;;;26.10;99.90;;;;;;5033091;28;19909;-49
2022/10/25 08:58:59;;;;;;;;;;;26.10;99.90;;;;;;5033099;28;19956;-49
2022/10/25 09:01:32;;;;;;;;;;;26.20;99.90;;;;;;5032402;28;20417;-49
2022/10/25 09:03:58;;;;;;;;;;;26.20;99.90;;;;;;5033002;28;19916;-49
2022/10/25 09:06:24;;;;;;;;;;;26.20;99.90;;;;;;5033280;28;19909;-49
2022/10/25 09:08:49;;;;;;;;;;;26.30;99.90;;;;;;5033113;28;19916;-49
2022/10/25 09:11:15;;;;;;;;;;;26.30;99.90;;;;;;5033013;28;20005;-49
2022/10/25 09:13:43;;;;;;;;;;;26.30;99.90;;;;;;5032951;28;19912;-49
2022/10/25 09:16:20;;;;;;;;;;;26.30;99.90;;;;;;5032921;28;19952;-49
2022/10/25 09:18:48;;;;;;;;;;;26.30;99.90;;;;;;5032876;28;20011;-49
2022/10/25 09:21:16;;;;;;;;;;;26.30;99.90;;;;;;5032781;28;19924;-49
2022/10/25 09:23:48;;;;;;;;;;;26.40;99.90;;;;;;5031160;28;20020;-49
2022/10/25 09:26:18;;;;;;;;;;;26.40;99.90;;;;;;5032592;28;20062;-49
2022/10/25 09:29:10;;;;;;;;;;;26.40;99.90;;;;;;5032684;28;19940;-49
2022/10/25 09:31:38;;;;;;;;;;;26.50;99.90;;;;;;5028562;28;19917;-49
2022/10/25 09:34:05;;;;;;;;;;;26.50;99.90;;;;;;5032464;28;20322;-49
2022/10/25 09:36:50;;;;;;;;;;;26.50;99.90;;;;;;5032304;28;19915;-49
2022/10/25 09:39:16;;;;;;;;;;;26.60;99.90;;;;;;5031637;28;19913;-49
2022/10/25 09:42:01;;;;;;;;;;;26.60;99.90;;;;;;5031911;28;19928;-49
2022/10/25 09:45:02;;;;;;;;;;;26.70;99.90;;;;;;5032342;28;19909;-49
2022/10/25 09:47:36;;;;;;;;;;;26.70;99.90;;;;;;4952199;29;19953;-49
2022/10/25 09:50:05;;;;;;;;;;;26.80;99.90;;;;;;5020425;28;19931;-49
2022/10/25 09:52:39;;;;;;;;;;;26.80;99.90;;;;;;5032126;28;20010;-49
2022/10/25 09:55:11;;;;;;;;;;;26.80;99.90;;;;;;5032249;28;19992;-49
2022/10/25 09:57:36;;;;;;;;;;;26.90;99.90;;;;;;5032335;28;19968;-49
2022/10/25 10:00:03;;;;;;;;;;;26.90;99.90;;;;;;4998072;28;19956;-49
2022/10/25 10:02:28;;;;;;;;;;;27.00;99.90;;;;;;5032601;28;20003;-49
2022/10/25 10:04:54;;;;;;;;;;;27.00;99.90;;;;;;5014472;28;20394;-49
2022/10/25 10:07:24;;;;;;;;;;;27.00;99.90;;;;;;5032254;28;19917;-49
2022/10/25 10:09:52;;;;;;;;;;;27.10;99.90;;;;;;5032376;28;19932;-50
2022/10/25 10:12:27;;;;;;;;;;;27.10;99.90;;;;;;5032734;28;20354;-49
2022/10/25 10:14:58;;;;;;;;;;;27.20;99.90;;;;;;5036377;28;20285;-49
2022/10/25 10:17:26;;;;;;;;;;;27.20;99.90;;;;;;5036245;28;19909;-49
2022/10/25 10:20:10;;;;;;;;;;;27.20;99.90;;;;;;5036183;28;19913;-49
2022/10/25 10:22:38;;;;;;;;;;;27.30;99.90;;;;;;5036107;28;19923;-49
2022/10/25 10:25:04;;;;;;;;;;;27.30;99.90;;;;;;5018606;28;19913;-49
2022/10/25 10:27:31;;;;;;;;;;;27.30;99.90;;;;;;5018529;28;19909;-50
2022/10/25 10:30:05;;;;;;;;;;;27.40;99.90;;;;;;5036241;28;20337;-50
2022/10/25 10:32:31;;;;;;;;;;;27.40;99.90;;;;;;5036313;28;19995;-49
2022/10/25 10:34:57;;;;;;;;;;;27.50;99.90;;;;;;5036152;28;20400;-50
2022/10/25 10:37:23;;;;;;;;;;;27.50;99.90;;;;;;5035905;28;19921;-50
2022/10/25 10:39:59;;;;;;;;;;;27.50;99.90;;;;;;5035750;28;20357;-50
2022/10/25 10:42:34;;;;;;;;;;;27.60;99.90;;;;;;5035570;28;19913;-49
2022/10/25 10:44:59;;;;;;;;;;;27.70;99.90;;;;;;5035753;28;19962;-49
2022/10/25 10:47:29;;;;;;;;;;;27.70;99.90;;;;;;5035658;28;20322;-49
2022/10/25 10:49:54;;;;;;;;;;;27.80;99.90;;;;;;5035420;28;19909;-49
2022/10/25 10:52:28;;;;;;;;;;;27.80;99.90;;;;;;5035366;28;19913;-50
2022/10/25 10:54:54;;;;;;;;;;;27.90;99.90;;;;;;5035540;28;20408;-49
2022/10/25 10:57:29;;;;;;;;;;;27.90;99.90;;;;;;5017783;28;20014;-50
2022/10/25 10:59:55;;;;;;;;;;;28.00;99.90;;;;;;5035055;28;20298;-50
2022/10/25 11:02:26;;;;;;;;;;;28.00;99.90;;;;;;5035242;28;19913;-49
2022/10/25 11:04:53;;;;;;;;;;;28.10;99.90;;;;;;5036727;28;19928;-48
2022/10/25 11:07:24;;;;;;;;;;;28.10;99.90;;;;;;5044332;28;19909;-48
2022/10/25 11:09:50;;;;;;;;;;;28.20;99.90;;;;;;5021329;28;20300;-49
2022/10/25 11:12:16;;;;;;;;;;;28.20;99.90;;;;;;5034539;28;19913;-49
2022/10/25 11:14:42;;;;;;;;;;;28.30;99.90;;;;;;5034677;28;19979;-50
2022/10/25 11:17:21;;;;;;;;;;;28.30;99.90;;;;;;5028063;28;20357;-47
2022/10/25 11:20:05;;;;;;;;;;;28.40;99.90;;;;;;5031627;28;20004;-48
2022/10/25 11:22:51;;;;;;;;;;;28.40;99.90;;;;;;5032016;28;20419;-49
2022/10/25 11:25:20;;;;;;;;;;;28.50;99.90;;;;;;5029340;28;21506;-47
2022/10/25 11:28:18;;;;;;;;;;;28.50;99.90;;;;;;5029926;28;20014;-47
2022/10/25 11:54:41;;;;;;;12.35;3.45;;;30.60;99.90;;;;;;5106925;27;20441;-53
2022/10/25 11:57:13;;;;;;;16.67;3.20;;;30.20;99.90;;;;;;5089772;28;20043;-53
2022/10/25 11:59:50;;;;;;;12.32;4.22;;;30.00;99.90;;;;;;5105317;28;20027;-52
2022/10/25 12:02:45;;;;;;;26.60;3.53;;;29.70;99.90;;;;;;5105905;28;20028;-53
2022/10/25 12:17:23;;;;;;;38.50;12.05;;;29.70;99.90;;;;;;5172169;27;20680;-53
2022/10/25 12:19:52;;;;;;;29.38;6.88;;;29.90;99.90;;;;;;5143647;27;20042;-50
2022/10/25 12:22:45;;;;;;;16.10;5.70;;;29.90;99.90;;;;;;5154439;27;20030;-51
2022/10/25 12:25:19;;;;;;;14.02;4.65;;;30.10;99.90;;;;;;5150468;27;20027;-53
2022/10/25 12:27:49;;;;;;;6.97;2.58;;;30.20;99.90;;;;;;5159737;27;20053;-51
2022/10/25 12:30:18;;;;;;;15.70;5.63;;;30.30;99.90;;;;;;5151558;27;20030;-51
2022/10/25 12:33:19;;;;;;;12.75;2.53;;;30.40;99.90;;;;;;5160648;27;20026;-52
2022/10/25 12:35:51;;;;;;;16.48;3.53;;;30.50;99.90;;;;;;5123070;27;20401;-52
2022/10/25 12:38:33;;;;;;;9.20;3.15;;;30.60;99.90;;;;;;5156420;27;20019;-53
2022/10/25 12:41:21;;;;;;;8.15;3.53;;;30.70;99.90;;;;;;5160776;27;20146;-51
2022/10/25 12:44:06;;;;;;;12.20;2.65;;;30.80;99.90;;;;;;5159659;27;20569;-52
2022/10/25 12:46:35;;;;;;;8.98;2.40;;;30.90;99.90;;;;;;5159739;27;20439;-52
2022/10/25 12:49:19;;;;;;;9.52;2.83;;;31.00;99.90;;;;;;5155817;27;20110;-52
2022/10/25 12:51:56;;;;;;;9.65;2.15;;;31.00;99.90;;;;;;5166083;27;20019;-52
2022/10/25 12:54:42;;;;;;;14.10;2.58;;;31.10;99.90;;;;;;5155378;27;20019;-52
2022/10/25 12:57:30;;;;;;;10.23;2.50;;;31.20;99.90;;;;;;5128127;27;20042;-52
2022/10/25 13:00:01;;;;;;;12.18;2.30;;;31.20;99.90;;;;;;5164539;27;20075;-52
2022/10/25 13:02:52;;;;;;;9.98;2.13;;;31.30;99.90;;;;;;5157314;27;20465;-52
2022/10/25 13:05:27;;;;;;;7.18;2.15;;;31.30;99.90;;;;;;5166067;27;20030;-52
2022/10/25 13:07:59;;;;;;;7.78;2.03;;;31.40;99.90;;;;;;5132811;27;20114;-51
2022/10/25 13:10:26;;;;;;;8.10;2.38;;;31.50;99.90;;;;;;5154460;27;20031;-52
2022/10/25 13:13:02;;;;;;;8.18;2.40;;;31.50;99.90;;;;;;5165758;27;20022;-51
2022/10/25 13:15:45;;;;;;;10.63;3.60;;;31.60;99.90;;;;;;5158989;27;20671;-51
2022/10/25 13:18:41;;;;;;;5.82;2.80;;;31.60;99.90;;;;;;5157997;27;20114;-51
2022/10/25 13:21:08;;;;;;;8.23;3.40;;;31.60;99.90;;;;;;5160456;27;20021;-52
2022/10/25 13:23:48;;;;;;;8.63;2.58;;;31.60;99.90;;;;;;5162580;27;20105;-52
2022/10/25 13:26:18;;;;;;;10.05;2.60;;;31.60;99.90;;;;;;5156044;27;20014;-52
2022/10/25 13:28:47;;;;;;;10.07;2.63;;;31.60;99.90;;;;;;5141705;27;20110;-52
2022/10/25 13:31:34;;;;;;;8.82;3.30;;;31.70;99.90;;;;;;5146917;27;20026;-52
2022/10/25 13:34:12;;;;;;;6.45;2.33;;;31.70;99.90;;;;;;5142957;27;20023;-52
2022/10/25 13:36:50;;;;;;;10.32;2.65;;;31.70;99.90;;;;;;5146264;27;20050;-52
2022/10/25 13:39:34;;;;;;;8.85;2.78;;;31.70;99.90;;;;;;5149816;27;20496;-52
2022/10/25 13:42:15;;;;;;;15.73;2.65;;;31.70;99.90;;;;;;5152270;27;20030;-52
2022/10/25 13:45:01;;;;;;;9.77;2.63;;;31.70;99.90;;;;;;5144459;27;20541;-52
2022/10/25 13:47:47;;;;;;;;;;;31.70;99.90;;;;;;5143374;27;20460;-52
2022/10/25 13:50:13;;;;;;;12.15;2.55;;;31.70;99.90;;;;;;5133259;27;20414;-51
2022/10/25 13:52:49;;;;;;;7.53;2.15;;;31.70;99.90;;;;;;5149877;27;20050;-53
2022/10/25 13:55:19;;;;;;;17.13;2.97;;;31.70;99.90;;;;;;5143396;27;20019;-53
2022/10/25 13:57:52;;;;;;;8.68;2.58;;;31.70;99.90;;;;;;5141204;27;20238;-53
2022/10/25 14:00:33;;;;;;;6.13;1.88;;;31.60;99.90;;;;;;5142188;27;20015;-53
2022/10/25 14:03:08;;;;;;;23.48;3.28;;;31.50;99.90;;;;;;5136875;27;20030;-52
2022/10/25 14:05:55;;;;;;;9.55;3.53;;;31.50;99.90;;;;;;5135938;27;20090;-52
2022/10/25 14:08:39;;;;;;;8.70;3.22;;;31.50;99.90;;;;;;5136012;27;20023;-53
2022/10/25 14:11:12;;;;;;;11.68;3.03;;;31.40;99.90;;;;;;5148038;27;20390;-53
2022/10/25 14:13:53;;;;;;;8.23;3.20;;;31.40;99.90;;;;;;5124592;27;20037;-52
2022/10/25 14:16:48;;;;;;;6.55;2.40;;;31.40;99.90;;;;;;5149465;27;20038;-53
2022/10/25 14:19:21;;;;;;;6.78;2.55;;;31.40;99.90;;;;;;5137012;27;20089;-53
2022/10/25 14:21:51;;;;;;;9.45;2.83;;;31.40;99.90;;;;;;5151876;27;20030;-53
2022/10/25 14:24:18;;;;;;;12.85;2.70;;;31.40;99.90;;;;;;5149053;27;20534;-52
2022/10/25 14:26:59;;;;;;;7.90;2.63;;;31.40;99.90;;;;;;5141797;27;20027;-53
2022/10/25 14:29:28;;;;;;;6.80;2.20;;;31.30;99.90;;;;;;5140443;27;20051;-52
2022/10/25 14:31:55;;;;;;;8.15;2.63;;;31.30;99.90;;;;;;5142958;27;20488;-53
2022/10/25 14:34:26;;;;;;;16.70;3.45;;;31.20;99.90;;;;;;5137306;27;20113;-53
2022/10/25 14:36:54;;;;;;;6.10;2.28;;;31.20;99.90;;;;;;5145517;27;20077;-54
2022/10/25 14:39:24;;;;;;;12.27;2.70;;;31.20;99.90;;;;;;5149858;27;20015;-52
2022/10/25 14:41:52;;;;;;;12.98;2.72;;;31.10;99.90;;;;;;5147097;27;20038;-52
2022/10/25 14:44:24;;;;;;;13.23;2.55;;;31.20;99.90;;;;;;5151057;27;20535;-53
2022/10/25 14:46:51;;;;;;;14.13;2.50;;;31.20;99.90;;;;;;5149388;27;20030;-53
2022/10/25 14:49:17;;;;;;;11.73;2.67;;;31.20;99.90;;;;;;5150936;27;20025;-53